<?xml version='1.0' encoding='UTF-8'?><gpx version="1.1" creator="JPX - https://github.com/jenetics/jpx" xmlns="http://www.topografix.com/GPX/1/1"><trk><trkseg><trkpt lat="45.555438" lon="10.218017"><ele>158.0</ele><time>2026-04-15T17:57:18.362Z</time></trkpt><trkpt lat="45.555487" lon="10.217872"><ele>158.0</ele><time>2026-04-15T17:57:20.364Z</time></trkpt><trkpt lat="45.55553" lon="10.217726"><ele>158.0</ele><time>2026-04-15T17:57:22.366Z</time></trkpt><trkpt lat="45.55557" lon="10.217564"><ele>158.0</ele><time>2026-04-15T17:57:24.369Z</time></trkpt><trkpt lat="45.555612" lon="10.217375"><ele>158.16666666666666</ele><time>2026-04-15T17:57:26.37Z</time></trkpt><trkpt lat="45.555633" lon="10.217266"><ele>158.33333333333331</ele><time>2026-04-15T17:57:27.373Z</time></trkpt><trkpt lat="45.555654" lon="10.21715"><ele>158.5</ele><time>2026-04-15T17:57:28.374Z</time></trkpt><trkpt lat="45.555676" lon="10.217041"><ele>158.66666666666666</ele><time>2026-04-15T17:57:29.377Z</time></trkpt><trkpt lat="45.555705" lon="10.216901"><ele>158.83333333333334</ele><time>2026-04-15T17:57:30.378Z</time></trkpt><trkpt lat="45.555731" lon="10.216782"><ele>159.0</ele><time>2026-04-15T17:57:31.378Z</time></trkpt><trkpt lat="45.555765" lon="10.216631"><ele>159.0</ele><time>2026-04-15T17:57:32.38Z</time></trkpt><trkpt lat="45.555794" lon="10.216505"><ele>159.0</ele><time>2026-04-15T17:57:33.382Z</time></trkpt><trkpt lat="45.555829" lon="10.21635"><ele>159.0</ele><time>2026-04-15T17:57:34.384Z</time></trkpt><trkpt lat="45.555862" lon="10.216208"><ele>159.0</ele><time>2026-04-15T17:57:35.387Z</time></trkpt><trkpt lat="45.555895" lon="10.216066"><ele>159.0</ele><time>2026-04-15T17:57:36.387Z</time></trkpt><trkpt lat="45.555924" lon="10.215938"><ele>158.6</ele><time>2026-04-15T17:57:37.387Z</time></trkpt><trkpt lat="45.555959" lon="10.215781"><ele>158.2</ele><time>2026-04-15T17:57:38.388Z</time></trkpt><trkpt lat="45.55599" lon="10.215637"><ele>157.79999999999998</ele><time>2026-04-15T17:57:39.391Z</time></trkpt><trkpt lat="45.556022" lon="10.215495"><ele>157.4</ele><time>2026-04-15T17:57:40.391Z</time></trkpt><trkpt lat="45.556053" lon="10.215357"><ele>157.0</ele><time>2026-04-15T17:57:41.393Z</time></trkpt><trkpt lat="45.556083" lon="10.215225"><ele>157.0</ele><time>2026-04-15T17:57:42.393Z</time></trkpt><trkpt lat="45.556112" lon="10.215097"><ele>157.0</ele><time>2026-04-15T17:57:43.394Z</time></trkpt><trkpt lat="45.556139" lon="10.214975"><ele>157.0</ele><time>2026-04-15T17:57:44.438Z</time></trkpt><trkpt lat="45.556162" lon="10.21487"><ele>157.0</ele><time>2026-04-15T17:57:45.398Z</time></trkpt><trkpt lat="45.556189" lon="10.214749"><ele>157.0</ele><time>2026-04-15T17:57:46.397Z</time></trkpt><trkpt lat="45.556215" lon="10.214662"><ele>157.0</ele><time>2026-04-15T17:57:47.398Z</time></trkpt><trkpt lat="45.556257" lon="10.214571"><ele>157.16666666666669</ele><time>2026-04-15T17:57:48.402Z</time></trkpt><trkpt lat="45.556304" lon="10.214503"><ele>157.33333333333334</ele><time>2026-04-15T17:57:49.401Z</time></trkpt><trkpt lat="45.556353" lon="10.214433"><ele>157.5</ele><time>2026-04-15T17:57:50.409Z</time></trkpt><trkpt lat="45.556406" lon="10.214253"><ele>157.66666666666666</ele><time>2026-04-15T17:57:52.406Z</time></trkpt><trkpt lat="45.556397" lon="10.214148"><ele>157.83333333333331</ele><time>2026-04-15T17:57:53.405Z</time></trkpt><trkpt lat="45.556384" lon="10.214039"><ele>158.0</ele><time>2026-04-15T17:57:54.406Z</time></trkpt><trkpt lat="45.556388" lon="10.213926"><ele>158.0</ele><time>2026-04-15T17:57:55.406Z</time></trkpt><trkpt lat="45.556406" lon="10.21381"><ele>158.0</ele><time>2026-04-15T17:57:56.407Z</time></trkpt><trkpt lat="45.556429" lon="10.213693"><ele>158.0</ele><time>2026-04-15T17:57:57.409Z</time></trkpt><trkpt lat="45.556453" lon="10.213586"><ele>158.0</ele><time>2026-04-15T17:57:58.41Z</time></trkpt><trkpt lat="45.556483" lon="10.213454"><ele>158.0</ele><time>2026-04-15T17:57:59.412Z</time></trkpt><trkpt lat="45.556509" lon="10.213337"><ele>158.0</ele><time>2026-04-15T17:58:00.415Z</time></trkpt><trkpt lat="45.556532" lon="10.213238"><ele>158.33333333333331</ele><time>2026-04-15T17:58:01.414Z</time></trkpt><trkpt lat="45.556559" lon="10.213123"><ele>158.66666666666666</ele><time>2026-04-15T17:58:02.416Z</time></trkpt><trkpt lat="45.55658" lon="10.213037"><ele>159.0</ele><time>2026-04-15T17:58:03.418Z</time></trkpt><trkpt lat="45.556611" lon="10.212904"><ele>159.33333333333334</ele><time>2026-04-15T17:58:05.418Z</time></trkpt><trkpt lat="45.556629" lon="10.212796"><ele>159.66666666666669</ele><time>2026-04-15T17:58:17.434Z</time></trkpt><trkpt lat="45.556583" lon="10.212704"><ele>160.0</ele><time>2026-04-15T17:58:19.438Z</time></trkpt><trkpt lat="45.556523" lon="10.212675"><ele>160.0</ele><time>2026-04-15T17:58:20.437Z</time></trkpt><trkpt lat="45.556449" lon="10.212651"><ele>160.0</ele><time>2026-04-15T17:58:21.438Z</time></trkpt><trkpt lat="45.556369" lon="10.212621"><ele>160.0</ele><time>2026-04-15T17:58:22.439Z</time></trkpt><trkpt lat="45.55629" lon="10.212591"><ele>160.0</ele><time>2026-04-15T17:58:23.441Z</time></trkpt><trkpt lat="45.556189" lon="10.212551"><ele>160.0</ele><time>2026-04-15T17:58:24.442Z</time></trkpt><trkpt lat="45.556091" lon="10.212516"><ele>160.0</ele><time>2026-04-15T17:58:25.444Z</time></trkpt><trkpt lat="45.55599" lon="10.21248"><ele>160.2</ele><time>2026-04-15T17:58:26.449Z</time></trkpt><trkpt lat="45.555897" lon="10.212447"><ele>160.4</ele><time>2026-04-15T17:58:27.451Z</time></trkpt><trkpt lat="45.555794" lon="10.212411"><ele>160.60000000000002</ele><time>2026-04-15T17:58:28.447Z</time></trkpt><trkpt lat="45.555684" lon="10.212371"><ele>160.8</ele><time>2026-04-15T17:58:29.451Z</time></trkpt><trkpt lat="45.555584" lon="10.212337"><ele>161.0</ele><time>2026-04-15T17:58:30.453Z</time></trkpt><trkpt lat="45.555482" lon="10.212303"><ele>161.0</ele><time>2026-04-15T17:58:31.501Z</time></trkpt><trkpt lat="45.555379" lon="10.212266"><ele>161.0</ele><time>2026-04-15T17:58:32.452Z</time></trkpt><trkpt lat="45.555272" lon="10.21223"><ele>161.0</ele><time>2026-04-15T17:58:33.453Z</time></trkpt><trkpt lat="45.555166" lon="10.212193"><ele>161.0</ele><time>2026-04-15T17:58:34.455Z</time></trkpt><trkpt lat="45.555061" lon="10.212154"><ele>161.0</ele><time>2026-04-15T17:58:35.454Z</time></trkpt><trkpt lat="45.554968" lon="10.212121"><ele>161.20000000000002</ele><time>2026-04-15T17:58:36.456Z</time></trkpt><trkpt lat="45.554854" lon="10.212086"><ele>161.4</ele><time>2026-04-15T17:58:37.458Z</time></trkpt><trkpt lat="45.554751" lon="10.212049"><ele>161.6</ele><time>2026-04-15T17:58:38.458Z</time></trkpt><trkpt lat="45.554649" lon="10.212014"><ele>161.8</ele><time>2026-04-15T17:58:39.462Z</time></trkpt><trkpt lat="45.554547" lon="10.211977"><ele>162.0</ele><time>2026-04-15T17:58:40.462Z</time></trkpt><trkpt lat="45.554456" lon="10.211944"><ele>161.5</ele><time>2026-04-15T17:58:41.463Z</time></trkpt><trkpt lat="45.554359" lon="10.21191"><ele>161.0</ele><time>2026-04-15T17:58:42.465Z</time></trkpt><trkpt lat="45.554261" lon="10.211875"><ele>160.5</ele><time>2026-04-15T17:58:43.466Z</time></trkpt><trkpt lat="45.55418" lon="10.211846"><ele>160.0</ele><time>2026-04-15T17:58:44.466Z</time></trkpt><trkpt lat="45.554108" lon="10.21182"><ele>159.5</ele><time>2026-04-15T17:58:45.47Z</time></trkpt><trkpt lat="45.554044" lon="10.211797"><ele>159.0</ele><time>2026-04-15T17:58:46.469Z</time></trkpt><trkpt lat="45.553938" lon="10.211759"><ele>159.0</ele><time>2026-04-15T17:58:48.472Z</time></trkpt><trkpt lat="45.553848" lon="10.211731"><ele>159.0</ele><time>2026-04-15T17:58:50.473Z</time></trkpt><trkpt lat="45.55375" lon="10.2117"><ele>159.0</ele><time>2026-04-15T17:58:52.476Z</time></trkpt><trkpt lat="45.553675" lon="10.211608"><ele>159.0</ele><time>2026-04-15T17:58:54.48Z</time></trkpt><trkpt lat="45.553672" lon="10.211449"><ele>159.0</ele><time>2026-04-15T17:58:56.482Z</time></trkpt><trkpt lat="45.553693" lon="10.21136"><ele>158.83333333333334</ele><time>2026-04-15T17:58:57.484Z</time></trkpt><trkpt lat="45.553717" lon="10.211262"><ele>158.66666666666666</ele><time>2026-04-15T17:58:58.483Z</time></trkpt><trkpt lat="45.553742" lon="10.211156"><ele>158.5</ele><time>2026-04-15T17:58:59.486Z</time></trkpt><trkpt lat="45.553768" lon="10.211042"><ele>158.33333333333331</ele><time>2026-04-15T17:59:00.486Z</time></trkpt><trkpt lat="45.553794" lon="10.210935"><ele>158.16666666666666</ele><time>2026-04-15T17:59:01.485Z</time></trkpt><trkpt lat="45.553826" lon="10.210796"><ele>158.0</ele><time>2026-04-15T17:59:02.486Z</time></trkpt><trkpt lat="45.553851" lon="10.210681"><ele>157.6</ele><time>2026-04-15T17:59:03.488Z</time></trkpt><trkpt lat="45.553884" lon="10.210538"><ele>157.20000000000002</ele><time>2026-04-15T17:59:04.489Z</time></trkpt><trkpt lat="45.553914" lon="10.210405"><ele>156.8</ele><time>2026-04-15T17:59:05.492Z</time></trkpt><trkpt lat="45.553945" lon="10.21027"><ele>156.4</ele><time>2026-04-15T17:59:06.491Z</time></trkpt><trkpt lat="45.553978" lon="10.210131"><ele>156.0</ele><time>2026-04-15T17:59:07.491Z</time></trkpt><trkpt lat="45.554013" lon="10.209989"><ele>156.0</ele><time>2026-04-15T17:59:08.494Z</time></trkpt><trkpt lat="45.554044" lon="10.209857"><ele>156.0</ele><time>2026-04-15T17:59:09.493Z</time></trkpt><trkpt lat="45.554082" lon="10.209694"><ele>156.0</ele><time>2026-04-15T17:59:10.494Z</time></trkpt><trkpt lat="45.554114" lon="10.20956"><ele>156.0</ele><time>2026-04-15T17:59:11.552Z</time></trkpt><trkpt lat="45.554152" lon="10.209396"><ele>156.0</ele><time>2026-04-15T17:59:12.496Z</time></trkpt><trkpt lat="45.554186" lon="10.209248"><ele>156.2</ele><time>2026-04-15T17:59:13.5Z</time></trkpt><trkpt lat="45.554219" lon="10.209101"><ele>156.39999999999998</ele><time>2026-04-15T17:59:14.5Z</time></trkpt><trkpt lat="45.554254" lon="10.208952"><ele>156.6</ele><time>2026-04-15T17:59:15.501Z</time></trkpt><trkpt lat="45.554291" lon="10.208804"><ele>156.79999999999998</ele><time>2026-04-15T17:59:16.501Z</time></trkpt><trkpt lat="45.554326" lon="10.208653"><ele>157.0</ele><time>2026-04-15T17:59:17.505Z</time></trkpt><trkpt lat="45.554362" lon="10.208501"><ele>157.25</ele><time>2026-04-15T17:59:18.504Z</time></trkpt><trkpt lat="45.554395" lon="10.208363"><ele>157.5</ele><time>2026-04-15T17:59:19.505Z</time></trkpt><trkpt lat="45.554436" lon="10.208191"><ele>157.75</ele><time>2026-04-15T17:59:20.508Z</time></trkpt><trkpt lat="45.554474" lon="10.208031"><ele>158.0</ele><time>2026-04-15T17:59:21.509Z</time></trkpt><trkpt lat="45.554513" lon="10.207868"><ele>157.5</ele><time>2026-04-15T17:59:22.507Z</time></trkpt><trkpt lat="45.554549" lon="10.207718"><ele>157.0</ele><time>2026-04-15T17:59:23.51Z</time></trkpt><trkpt lat="45.554588" lon="10.207548"><ele>156.5</ele><time>2026-04-15T17:59:24.511Z</time></trkpt><trkpt lat="45.554632" lon="10.20736"><ele>156.0</ele><time>2026-04-15T17:59:25.512Z</time></trkpt><trkpt lat="45.554673" lon="10.207189"><ele>156.0</ele><time>2026-04-15T17:59:26.513Z</time></trkpt><trkpt lat="45.554713" lon="10.207017"><ele>156.0</ele><time>2026-04-15T17:59:27.514Z</time></trkpt><trkpt lat="45.554753" lon="10.206845"><ele>156.0</ele><time>2026-04-15T17:59:28.516Z</time></trkpt><trkpt lat="45.554793" lon="10.206677"><ele>156.0</ele><time>2026-04-15T17:59:29.517Z</time></trkpt><trkpt lat="45.554833" lon="10.206509"><ele>155.5</ele><time>2026-04-15T17:59:30.521Z</time></trkpt><trkpt lat="45.554871" lon="10.206344"><ele>155.0</ele><time>2026-04-15T17:59:31.518Z</time></trkpt><trkpt lat="45.55491" lon="10.206181"><ele>154.5</ele><time>2026-04-15T17:59:32.52Z</time></trkpt><trkpt lat="45.554943" lon="10.206036"><ele>154.0</ele><time>2026-04-15T17:59:33.518Z</time></trkpt><trkpt lat="45.554986" lon="10.205861"><ele>154.0</ele><time>2026-04-15T17:59:34.522Z</time></trkpt><trkpt lat="45.555026" lon="10.2057"><ele>154.0</ele><time>2026-04-15T17:59:35.523Z</time></trkpt><trkpt lat="45.555061" lon="10.205555"><ele>154.0</ele><time>2026-04-15T17:59:36.523Z</time></trkpt><trkpt lat="45.555099" lon="10.205393"><ele>154.0</ele><time>2026-04-15T17:59:37.523Z</time></trkpt><trkpt lat="45.555141" lon="10.205216"><ele>154.0</ele><time>2026-04-15T17:59:38.527Z</time></trkpt><trkpt lat="45.555175" lon="10.205073"><ele>154.0</ele><time>2026-04-15T17:59:39.527Z</time></trkpt><trkpt lat="45.555216" lon="10.2049"><ele>154.0</ele><time>2026-04-15T17:59:40.598Z</time></trkpt><trkpt lat="45.555252" lon="10.204745"><ele>154.0</ele><time>2026-04-15T17:59:41.528Z</time></trkpt><trkpt lat="45.555286" lon="10.204595"><ele>153.8</ele><time>2026-04-15T17:59:42.529Z</time></trkpt><trkpt lat="45.555319" lon="10.20445"><ele>153.60000000000002</ele><time>2026-04-15T17:59:43.531Z</time></trkpt><trkpt lat="45.555351" lon="10.204309"><ele>153.4</ele><time>2026-04-15T17:59:44.533Z</time></trkpt><trkpt lat="45.555383" lon="10.204172"><ele>153.20000000000002</ele><time>2026-04-15T17:59:45.534Z</time></trkpt><trkpt lat="45.555414" lon="10.204039"><ele>153.0</ele><time>2026-04-15T17:59:46.564Z</time></trkpt><trkpt lat="45.555443" lon="10.203919"><ele>154.20000000000002</ele><time>2026-04-15T17:59:47.537Z</time></trkpt><trkpt lat="45.555478" lon="10.203772"><ele>155.4</ele><time>2026-04-15T17:59:48.536Z</time></trkpt><trkpt lat="45.555506" lon="10.20365"><ele>156.60000000000002</ele><time>2026-04-15T17:59:49.536Z</time></trkpt><trkpt lat="45.555541" lon="10.203499"><ele>157.8</ele><time>2026-04-15T17:59:50.538Z</time></trkpt><trkpt lat="45.555573" lon="10.203362"><ele>159.0</ele><time>2026-04-15T17:59:51.541Z</time></trkpt><trkpt lat="45.555603" lon="10.203226"><ele>158.83333333333334</ele><time>2026-04-15T17:59:52.547Z</time></trkpt><trkpt lat="45.555628" lon="10.203106"><ele>158.66666666666666</ele><time>2026-04-15T17:59:53.541Z</time></trkpt><trkpt lat="45.555657" lon="10.202969"><ele>158.5</ele><time>2026-04-15T17:59:54.544Z</time></trkpt><trkpt lat="45.55568" lon="10.202858"><ele>158.33333333333331</ele><time>2026-04-15T17:59:55.545Z</time></trkpt><trkpt lat="45.555702" lon="10.202758"><ele>158.16666666666666</ele><time>2026-04-15T17:59:56.544Z</time></trkpt><trkpt lat="45.555723" lon="10.20267"><ele>158.0</ele><time>2026-04-15T17:59:57.547Z</time></trkpt><trkpt lat="45.555759" lon="10.202523"><ele>158.0</ele><time>2026-04-15T17:59:59.548Z</time></trkpt><trkpt lat="45.555786" lon="10.202414"><ele>158.0</ele><time>2026-04-15T18:00:01.554Z</time></trkpt><trkpt lat="45.555813" lon="10.202309"><ele>158.0</ele><time>2026-04-15T18:00:41.599Z</time></trkpt><trkpt lat="45.555836" lon="10.202203"><ele>158.0</ele><time>2026-04-15T18:00:43.6Z</time></trkpt><trkpt lat="45.555857" lon="10.202094"><ele>158.0</ele><time>2026-04-15T18:00:45.602Z</time></trkpt><trkpt lat="45.555874" lon="10.202003"><ele>158.0</ele><time>2026-04-15T18:00:51.612Z</time></trkpt><trkpt lat="45.555883" lon="10.201895"><ele>156.8</ele><time>2026-04-15T18:00:55.623Z</time></trkpt><trkpt lat="45.555828" lon="10.20177"><ele>155.60000000000002</ele><time>2026-04-15T18:00:57.625Z</time></trkpt><trkpt lat="45.555768" lon="10.201708"><ele>154.39999999999998</ele><time>2026-04-15T18:00:58.627Z</time></trkpt><trkpt lat="45.555695" lon="10.201638"><ele>153.2</ele><time>2026-04-15T18:00:59.629Z</time></trkpt><trkpt lat="45.55561" lon="10.201553"><ele>152.0</ele><time>2026-04-15T18:01:00.629Z</time></trkpt><trkpt lat="45.555514" lon="10.201452"><ele>152.0</ele><time>2026-04-15T18:01:01.63Z</time></trkpt><trkpt lat="45.555412" lon="10.201333"><ele>152.0</ele><time>2026-04-15T18:01:02.633Z</time></trkpt><trkpt lat="45.555316" lon="10.201211"><ele>152.0</ele><time>2026-04-15T18:01:03.635Z</time></trkpt><trkpt lat="45.555193" lon="10.201046"><ele>152.0</ele><time>2026-04-15T18:01:04.635Z</time></trkpt><trkpt lat="45.555086" lon="10.200902"><ele>152.33333333333331</ele><time>2026-04-15T18:01:05.636Z</time></trkpt><trkpt lat="45.554951" lon="10.200719"><ele>152.66666666666666</ele><time>2026-04-15T18:01:06.638Z</time></trkpt><trkpt lat="45.554835" lon="10.200563"><ele>153.0</ele><time>2026-04-15T18:01:07.638Z</time></trkpt><trkpt lat="45.554685" lon="10.200367"><ele>152.33333333333334</ele><time>2026-04-15T18:01:08.642Z</time></trkpt><trkpt lat="45.554559" lon="10.200203"><ele>151.66666666666669</ele><time>2026-04-15T18:01:09.64Z</time></trkpt><trkpt lat="45.554402" lon="10.199995"><ele>151.0</ele><time>2026-04-15T18:01:10.64Z</time></trkpt><trkpt lat="45.554257" lon="10.199804"><ele>150.66666666666669</ele><time>2026-04-15T18:01:11.642Z</time></trkpt><trkpt lat="45.554115" lon="10.199612"><ele>150.33333333333334</ele><time>2026-04-15T18:01:12.644Z</time></trkpt><trkpt lat="45.553989" lon="10.199437"><ele>150.0</ele><time>2026-04-15T18:01:13.646Z</time></trkpt><trkpt lat="45.553851" lon="10.19924"><ele>150.0</ele><time>2026-04-15T18:01:14.647Z</time></trkpt><trkpt lat="45.553703" lon="10.19902"><ele>150.0</ele><time>2026-04-15T18:01:15.653Z</time></trkpt><trkpt lat="45.553582" lon="10.198837"><ele>150.0</ele><time>2026-04-15T18:01:16.654Z</time></trkpt><trkpt lat="45.553435" lon="10.198614"><ele>150.0</ele><time>2026-04-15T18:01:17.654Z</time></trkpt><trkpt lat="45.553316" lon="10.198429"><ele>150.0</ele><time>2026-04-15T18:01:18.657Z</time></trkpt><trkpt lat="45.553185" lon="10.198224"><ele>150.0</ele><time>2026-04-15T18:01:19.657Z</time></trkpt><trkpt lat="45.553038" lon="10.198"><ele>150.0</ele><time>2026-04-15T18:01:20.661Z</time></trkpt><trkpt lat="45.552903" lon="10.197795"><ele>150.0</ele><time>2026-04-15T18:01:21.663Z</time></trkpt><trkpt lat="45.552782" lon="10.197607"><ele>150.0</ele><time>2026-04-15T18:01:22.662Z</time></trkpt><trkpt lat="45.552637" lon="10.197369"><ele>149.33333333333334</ele><time>2026-04-15T18:01:23.662Z</time></trkpt><trkpt lat="45.552511" lon="10.197144"><ele>148.66666666666669</ele><time>2026-04-15T18:01:24.664Z</time></trkpt><trkpt lat="45.552386" lon="10.196912"><ele>148.0</ele><time>2026-04-15T18:01:25.674Z</time></trkpt><trkpt lat="45.552263" lon="10.196677"><ele>148.0</ele><time>2026-04-15T18:01:26.669Z</time></trkpt><trkpt lat="45.552142" lon="10.196437"><ele>148.0</ele><time>2026-04-15T18:01:27.669Z</time></trkpt><trkpt lat="45.552021" lon="10.196195"><ele>148.0</ele><time>2026-04-15T18:01:28.671Z</time></trkpt><trkpt lat="45.551901" lon="10.195951"><ele>148.0</ele><time>2026-04-15T18:01:29.674Z</time></trkpt><trkpt lat="45.551793" lon="10.19573"><ele>148.0</ele><time>2026-04-15T18:01:30.677Z</time></trkpt><trkpt lat="45.551659" lon="10.195458"><ele>148.0</ele><time>2026-04-15T18:01:31.676Z</time></trkpt><trkpt lat="45.551538" lon="10.195209"><ele>147.66666666666669</ele><time>2026-04-15T18:01:32.679Z</time></trkpt><trkpt lat="45.551427" lon="10.194984"><ele>147.33333333333334</ele><time>2026-04-15T18:01:33.678Z</time></trkpt><trkpt lat="45.551293" lon="10.194707"><ele>147.0</ele><time>2026-04-15T18:01:34.677Z</time></trkpt><trkpt lat="45.551183" lon="10.194483"><ele>147.0</ele><time>2026-04-15T18:01:35.681Z</time></trkpt><trkpt lat="45.551049" lon="10.194211"><ele>147.0</ele><time>2026-04-15T18:01:36.713Z</time></trkpt><trkpt lat="45.550927" lon="10.193963"><ele>147.0</ele><time>2026-04-15T18:01:37.681Z</time></trkpt><trkpt lat="45.550803" lon="10.193712"><ele>147.0</ele><time>2026-04-15T18:01:38.681Z</time></trkpt><trkpt lat="45.550675" lon="10.193459"><ele>147.0</ele><time>2026-04-15T18:01:39.686Z</time></trkpt><trkpt lat="45.550564" lon="10.193233"><ele>147.0</ele><time>2026-04-15T18:01:40.686Z</time></trkpt><trkpt lat="45.550426" lon="10.192958"><ele>146.0</ele><time>2026-04-15T18:01:41.687Z</time></trkpt><trkpt lat="45.550299" lon="10.192706"><ele>145.0</ele><time>2026-04-15T18:01:42.688Z</time></trkpt><trkpt lat="45.550173" lon="10.192452"><ele>144.0</ele><time>2026-04-15T18:01:43.688Z</time></trkpt><trkpt lat="45.550047" lon="10.192197"><ele>143.66666666666666</ele><time>2026-04-15T18:01:44.689Z</time></trkpt><trkpt lat="45.54992" lon="10.19194"><ele>143.33333333333331</ele><time>2026-04-15T18:01:45.693Z</time></trkpt><trkpt lat="45.54979" lon="10.191678"><ele>143.0</ele><time>2026-04-15T18:01:46.692Z</time></trkpt><trkpt lat="45.54966" lon="10.191416"><ele>143.0</ele><time>2026-04-15T18:01:47.694Z</time></trkpt><trkpt lat="45.54953" lon="10.191156"><ele>143.0</ele><time>2026-04-15T18:01:48.695Z</time></trkpt><trkpt lat="45.549415" lon="10.190922"><ele>143.0</ele><time>2026-04-15T18:01:49.701Z</time></trkpt><trkpt lat="45.549274" lon="10.190639"><ele>143.0</ele><time>2026-04-15T18:01:50.7Z</time></trkpt><trkpt lat="45.549159" lon="10.190408"><ele>143.0</ele><time>2026-04-15T18:01:51.702Z</time></trkpt><trkpt lat="45.549018" lon="10.190125"><ele>143.0</ele><time>2026-04-15T18:01:52.708Z</time></trkpt><trkpt lat="45.548891" lon="10.189869"><ele>143.0</ele><time>2026-04-15T18:01:53.706Z</time></trkpt><trkpt lat="45.548764" lon="10.189613"><ele>143.0</ele><time>2026-04-15T18:01:54.703Z</time></trkpt><trkpt lat="45.548649" lon="10.189383"><ele>143.0</ele><time>2026-04-15T18:01:55.703Z</time></trkpt><trkpt lat="45.548509" lon="10.189101"><ele>143.33333333333331</ele><time>2026-04-15T18:01:56.706Z</time></trkpt><trkpt lat="45.548395" lon="10.188869"><ele>143.66666666666666</ele><time>2026-04-15T18:01:57.707Z</time></trkpt><trkpt lat="45.548268" lon="10.18861"><ele>144.0</ele><time>2026-04-15T18:01:58.707Z</time></trkpt><trkpt lat="45.548129" lon="10.188324"><ele>143.66666666666666</ele><time>2026-04-15T18:01:59.711Z</time></trkpt><trkpt lat="45.548002" lon="10.188064"><ele>143.33333333333331</ele><time>2026-04-15T18:02:00.718Z</time></trkpt><trkpt lat="45.547872" lon="10.187804"><ele>143.0</ele><time>2026-04-15T18:02:01.712Z</time></trkpt><trkpt lat="45.547741" lon="10.187548"><ele>143.0</ele><time>2026-04-15T18:02:02.715Z</time></trkpt><trkpt lat="45.547608" lon="10.187297"><ele>143.0</ele><time>2026-04-15T18:02:03.716Z</time></trkpt><trkpt lat="45.547484" lon="10.187077"><ele>143.0</ele><time>2026-04-15T18:02:04.719Z</time></trkpt><trkpt lat="45.547323" lon="10.186822"><ele>143.0</ele><time>2026-04-15T18:02:05.75Z</time></trkpt><trkpt lat="45.547173" lon="10.186599"><ele>143.0</ele><time>2026-04-15T18:02:06.72Z</time></trkpt><trkpt lat="45.547019" lon="10.186386"><ele>143.0</ele><time>2026-04-15T18:02:07.721Z</time></trkpt><trkpt lat="45.54686" lon="10.186184"><ele>143.33333333333331</ele><time>2026-04-15T18:02:08.722Z</time></trkpt><trkpt lat="45.546697" lon="10.185993"><ele>143.66666666666666</ele><time>2026-04-15T18:02:09.725Z</time></trkpt><trkpt lat="45.546534" lon="10.185807"><ele>144.0</ele><time>2026-04-15T18:02:10.725Z</time></trkpt><trkpt lat="45.546359" lon="10.185644"><ele>143.33333333333334</ele><time>2026-04-15T18:02:11.726Z</time></trkpt><trkpt lat="45.54618" lon="10.18549"><ele>142.66666666666669</ele><time>2026-04-15T18:02:12.73Z</time></trkpt><trkpt lat="45.546012" lon="10.185364"><ele>142.0</ele><time>2026-04-15T18:02:13.729Z</time></trkpt><trkpt lat="45.545799" lon="10.18522"><ele>142.0</ele><time>2026-04-15T18:02:14.73Z</time></trkpt><trkpt lat="45.545602" lon="10.185095"><ele>142.0</ele><time>2026-04-15T18:02:15.733Z</time></trkpt><trkpt lat="45.545404" lon="10.184978"><ele>142.0</ele><time>2026-04-15T18:02:16.733Z</time></trkpt><trkpt lat="45.545204" lon="10.184867"><ele>142.0</ele><time>2026-04-15T18:02:17.735Z</time></trkpt><trkpt lat="45.545024" lon="10.184769"><ele>142.0</ele><time>2026-04-15T18:02:18.735Z</time></trkpt><trkpt lat="45.544822" lon="10.184662"><ele>142.0</ele><time>2026-04-15T18:02:19.737Z</time></trkpt><trkpt lat="45.544599" lon="10.184545"><ele>140.66666666666669</ele><time>2026-04-15T18:02:20.737Z</time></trkpt><trkpt lat="45.544399" lon="10.184428"><ele>139.33333333333334</ele><time>2026-04-15T18:02:21.74Z</time></trkpt><trkpt lat="45.544196" lon="10.184319"><ele>138.0</ele><time>2026-04-15T18:02:22.742Z</time></trkpt><trkpt lat="45.543995" lon="10.184201"><ele>138.0</ele><time>2026-04-15T18:02:23.795Z</time></trkpt><trkpt lat="45.543794" lon="10.184082"><ele>138.0</ele><time>2026-04-15T18:02:24.746Z</time></trkpt><trkpt lat="45.543614" lon="10.183976"><ele>138.0</ele><time>2026-04-15T18:02:25.746Z</time></trkpt><trkpt lat="45.543392" lon="10.183851"><ele>136.66666666666666</ele><time>2026-04-15T18:02:26.747Z</time></trkpt><trkpt lat="45.543209" lon="10.183752"><ele>135.33333333333331</ele><time>2026-04-15T18:02:27.75Z</time></trkpt><trkpt lat="45.543005" lon="10.183642"><ele>134.0</ele><time>2026-04-15T18:02:28.75Z</time></trkpt><trkpt lat="45.542801" lon="10.183537"><ele>133.5</ele><time>2026-04-15T18:02:29.753Z</time></trkpt><trkpt lat="45.542576" lon="10.183425"><ele>133.0</ele><time>2026-04-15T18:02:30.754Z</time></trkpt><trkpt lat="45.542372" lon="10.183328"><ele>134.5</ele><time>2026-04-15T18:02:31.756Z</time></trkpt><trkpt lat="45.541966" lon="10.183152"><ele>136.0</ele><time>2026-04-15T18:02:32.764Z</time></trkpt><trkpt lat="45.541766" lon="10.183071"><ele>136.0</ele><time>2026-04-15T18:02:33.766Z</time></trkpt><trkpt lat="45.541588" lon="10.182999"><ele>136.0</ele><time>2026-04-15T18:02:34.771Z</time></trkpt><trkpt lat="45.541374" lon="10.182913"><ele>136.0</ele><time>2026-04-15T18:02:35.768Z</time></trkpt><trkpt lat="45.541182" lon="10.182836"><ele>136.33333333333334</ele><time>2026-04-15T18:02:36.77Z</time></trkpt><trkpt lat="45.541011" lon="10.182767"><ele>136.66666666666666</ele><time>2026-04-15T18:02:37.771Z</time></trkpt><trkpt lat="45.540823" lon="10.182689"><ele>137.0</ele><time>2026-04-15T18:02:38.774Z</time></trkpt><trkpt lat="45.540618" lon="10.182606"><ele>137.0</ele><time>2026-04-15T18:02:39.774Z</time></trkpt><trkpt lat="45.540432" lon="10.182531"><ele>137.0</ele><time>2026-04-15T18:02:40.775Z</time></trkpt><trkpt lat="45.540248" lon="10.182456"><ele>137.0</ele><time>2026-04-15T18:02:41.778Z</time></trkpt><trkpt lat="45.540083" lon="10.182388"><ele>136.33333333333331</ele><time>2026-04-15T18:02:42.778Z</time></trkpt><trkpt lat="45.539882" lon="10.182305"><ele>135.66666666666666</ele><time>2026-04-15T18:02:43.778Z</time></trkpt><trkpt lat="45.539718" lon="10.182238"><ele>135.0</ele><time>2026-04-15T18:02:44.782Z</time></trkpt><trkpt lat="45.539534" lon="10.182165"><ele>135.0</ele><time>2026-04-15T18:02:45.781Z</time></trkpt><trkpt lat="45.539331" lon="10.182085"><ele>135.0</ele><time>2026-04-15T18:02:46.835Z</time></trkpt><trkpt lat="45.539146" lon="10.182012"><ele>135.0</ele><time>2026-04-15T18:02:47.784Z</time></trkpt><trkpt lat="45.538979" lon="10.181945"><ele>135.0</ele><time>2026-04-15T18:02:48.787Z</time></trkpt><trkpt lat="45.538775" lon="10.181859"><ele>135.0</ele><time>2026-04-15T18:02:49.787Z</time></trkpt><trkpt lat="45.53859" lon="10.181779"><ele>135.0</ele><time>2026-04-15T18:02:50.787Z</time></trkpt><trkpt lat="45.538424" lon="10.181703"><ele>134.66666666666666</ele><time>2026-04-15T18:02:51.788Z</time></trkpt><trkpt lat="45.538241" lon="10.181614"><ele>134.33333333333331</ele><time>2026-04-15T18:02:52.812Z</time></trkpt><trkpt lat="45.538043" lon="10.181513"><ele>134.0</ele><time>2026-04-15T18:02:53.789Z</time></trkpt><trkpt lat="45.537865" lon="10.181421"><ele>133.33333333333331</ele><time>2026-04-15T18:02:54.791Z</time></trkpt><trkpt lat="45.537689" lon="10.181327"><ele>132.66666666666666</ele><time>2026-04-15T18:02:55.792Z</time></trkpt><trkpt lat="45.537534" lon="10.181241"><ele>132.0</ele><time>2026-04-15T18:02:56.797Z</time></trkpt><trkpt lat="45.537362" lon="10.181146"><ele>132.0</ele><time>2026-04-15T18:02:57.798Z</time></trkpt><trkpt lat="45.537192" lon="10.18105"><ele>132.0</ele><time>2026-04-15T18:02:58.799Z</time></trkpt><trkpt lat="45.537024" lon="10.180952"><ele>132.0</ele><time>2026-04-15T18:02:59.801Z</time></trkpt><trkpt lat="45.536855" lon="10.180853"><ele>131.33333333333334</ele><time>2026-04-15T18:03:00.802Z</time></trkpt><trkpt lat="45.536669" lon="10.180741"><ele>130.66666666666669</ele><time>2026-04-15T18:03:01.803Z</time></trkpt><trkpt lat="45.536498" lon="10.180639"><ele>130.0</ele><time>2026-04-15T18:03:02.804Z</time></trkpt><trkpt lat="45.536327" lon="10.180537"><ele>129.66666666666669</ele><time>2026-04-15T18:03:03.803Z</time></trkpt><trkpt lat="45.536156" lon="10.180435"><ele>129.33333333333334</ele><time>2026-04-15T18:03:04.807Z</time></trkpt><trkpt lat="45.535984" lon="10.180335"><ele>129.0</ele><time>2026-04-15T18:03:05.809Z</time></trkpt><trkpt lat="45.535829" lon="10.180243"><ele>129.0</ele><time>2026-04-15T18:03:06.81Z</time></trkpt><trkpt lat="45.535639" lon="10.18013"><ele>129.0</ele><time>2026-04-15T18:03:07.812Z</time></trkpt><trkpt lat="45.535463" lon="10.180028"><ele>129.0</ele><time>2026-04-15T18:03:08.811Z</time></trkpt><trkpt lat="45.535302" lon="10.179935"><ele>129.33333333333334</ele><time>2026-04-15T18:03:09.877Z</time></trkpt><trkpt lat="45.535104" lon="10.17982"><ele>129.66666666666669</ele><time>2026-04-15T18:03:10.815Z</time></trkpt><trkpt lat="45.534927" lon="10.179721"><ele>130.0</ele><time>2026-04-15T18:03:11.816Z</time></trkpt><trkpt lat="45.534746" lon="10.179631"><ele>130.0</ele><time>2026-04-15T18:03:12.817Z</time></trkpt><trkpt lat="45.534216" lon="10.179311"><ele>130.0</ele><time>2026-04-15T18:03:15.82Z</time></trkpt><trkpt lat="45.534039" lon="10.179207"><ele>130.0</ele><time>2026-04-15T18:03:16.822Z</time></trkpt><trkpt lat="45.53386" lon="10.179101"><ele>130.0</ele><time>2026-04-15T18:03:17.823Z</time></trkpt><trkpt lat="45.533679" lon="10.178993"><ele>129.33333333333334</ele><time>2026-04-15T18:03:18.825Z</time></trkpt><trkpt lat="45.533494" lon="10.178889"><ele>128.66666666666666</ele><time>2026-04-15T18:03:19.831Z</time></trkpt><trkpt lat="45.533326" lon="10.178801"><ele>128.0</ele><time>2026-04-15T18:03:20.825Z</time></trkpt><trkpt lat="45.533118" lon="10.178695"><ele>128.0</ele><time>2026-04-15T18:03:21.829Z</time></trkpt><trkpt lat="45.532928" lon="10.178599"><ele>128.0</ele><time>2026-04-15T18:03:22.828Z</time></trkpt><trkpt lat="45.532737" lon="10.178504"><ele>128.0</ele><time>2026-04-15T18:03:23.829Z</time></trkpt><trkpt lat="45.532546" lon="10.178409"><ele>127.66666666666666</ele><time>2026-04-15T18:03:24.83Z</time></trkpt><trkpt lat="45.532355" lon="10.178314"><ele>127.33333333333334</ele><time>2026-04-15T18:03:25.832Z</time></trkpt><trkpt lat="45.532164" lon="10.178222"><ele>127.0</ele><time>2026-04-15T18:03:26.834Z</time></trkpt><trkpt lat="45.531991" lon="10.17814"><ele>127.0</ele><time>2026-04-15T18:03:27.833Z</time></trkpt><trkpt lat="45.531801" lon="10.178044"><ele>127.0</ele><time>2026-04-15T18:03:28.836Z</time></trkpt><trkpt lat="45.531592" lon="10.177941"><ele>127.0</ele><time>2026-04-15T18:03:29.837Z</time></trkpt><trkpt lat="45.531403" lon="10.177845"><ele>126.33333333333334</ele><time>2026-04-15T18:03:30.838Z</time></trkpt><trkpt lat="45.531216" lon="10.177751"><ele>125.66666666666666</ele><time>2026-04-15T18:03:31.836Z</time></trkpt><trkpt lat="45.531029" lon="10.177658"><ele>125.0</ele><time>2026-04-15T18:03:32.839Z</time></trkpt><trkpt lat="45.530843" lon="10.177565"><ele>125.0</ele><time>2026-04-15T18:03:33.842Z</time></trkpt><trkpt lat="45.530656" lon="10.177473"><ele>125.0</ele><time>2026-04-15T18:03:34.841Z</time></trkpt><trkpt lat="45.530468" lon="10.177381"><ele>125.0</ele><time>2026-04-15T18:03:35.844Z</time></trkpt><trkpt lat="45.530281" lon="10.177291"><ele>125.66666666666666</ele><time>2026-04-15T18:03:36.842Z</time></trkpt><trkpt lat="45.530094" lon="10.177202"><ele>126.33333333333334</ele><time>2026-04-15T18:03:37.844Z</time></trkpt><trkpt lat="45.529909" lon="10.177107"><ele>127.0</ele><time>2026-04-15T18:03:38.845Z</time></trkpt><trkpt lat="45.529744" lon="10.177015"><ele>127.0</ele><time>2026-04-15T18:03:39.847Z</time></trkpt><trkpt lat="45.529562" lon="10.17691"><ele>127.0</ele><time>2026-04-15T18:03:40.848Z</time></trkpt><trkpt lat="45.529363" lon="10.17681"><ele>127.0</ele><time>2026-04-15T18:03:41.85Z</time></trkpt><trkpt lat="45.529176" lon="10.176704"><ele>129.0</ele><time>2026-04-15T18:03:42.853Z</time></trkpt><trkpt lat="45.526563" lon="10.17534"><ele>129.0</ele><time>2026-04-15T18:03:58.875Z</time></trkpt><trkpt lat="45.526486" lon="10.175295"><ele>129.0</ele><time>2026-04-15T18:03:59.878Z</time></trkpt><trkpt lat="45.526392" lon="10.175214"><ele>129.0</ele><time>2026-04-15T18:04:01.88Z</time></trkpt><trkpt lat="45.526326" lon="10.175099"><ele>129.0</ele><time>2026-04-15T18:04:03.882Z</time></trkpt><trkpt lat="45.526294" lon="10.175008"><ele>129.0</ele><time>2026-04-15T18:04:04.883Z</time></trkpt><trkpt lat="45.52626" lon="10.174906"><ele>129.0</ele><time>2026-04-15T18:04:05.885Z</time></trkpt><trkpt lat="45.526217" lon="10.174799"><ele>128.4</ele><time>2026-04-15T18:04:06.886Z</time></trkpt><trkpt lat="45.526164" lon="10.174704"><ele>127.80000000000001</ele><time>2026-04-15T18:04:07.888Z</time></trkpt><trkpt lat="45.526104" lon="10.174621"><ele>127.19999999999999</ele><time>2026-04-15T18:04:08.888Z</time></trkpt><trkpt lat="45.526027" lon="10.17451"><ele>126.6</ele><time>2026-04-15T18:04:09.892Z</time></trkpt><trkpt lat="45.525971" lon="10.17438"><ele>126.0</ele><time>2026-04-15T18:04:10.889Z</time></trkpt><trkpt lat="45.525893" lon="10.174309"><ele>126.0</ele><time>2026-04-15T18:04:11.89Z</time></trkpt><trkpt lat="45.525727" lon="10.174467"><ele>126.0</ele><time>2026-04-15T18:04:12.892Z</time></trkpt><trkpt lat="45.525609" lon="10.174553"><ele>126.0</ele><time>2026-04-15T18:04:13.894Z</time></trkpt><trkpt lat="45.525507" lon="10.174664"><ele>126.0</ele><time>2026-04-15T18:04:14.896Z</time></trkpt><trkpt lat="45.525433" lon="10.174784"><ele>126.0</ele><time>2026-04-15T18:04:15.896Z</time></trkpt><trkpt lat="45.525368" lon="10.174943"><ele>126.0</ele><time>2026-04-15T18:04:16.897Z</time></trkpt><trkpt lat="45.525334" lon="10.175098"><ele>126.0</ele><time>2026-04-15T18:04:17.9Z</time></trkpt><trkpt lat="45.525321" lon="10.175253"><ele>125.8</ele><time>2026-04-15T18:04:18.937Z</time></trkpt><trkpt lat="45.525315" lon="10.175403"><ele>125.6</ele><time>2026-04-15T18:04:19.902Z</time></trkpt><trkpt lat="45.525306" lon="10.175537"><ele>125.4</ele><time>2026-04-15T18:04:20.904Z</time></trkpt><trkpt lat="45.525276" lon="10.175693"><ele>125.2</ele><time>2026-04-15T18:04:21.902Z</time></trkpt><trkpt lat="45.525231" lon="10.17583"><ele>125.0</ele><time>2026-04-15T18:04:22.909Z</time></trkpt><trkpt lat="45.525177" lon="10.175965"><ele>125.0</ele><time>2026-04-15T18:04:23.906Z</time></trkpt><trkpt lat="45.525126" lon="10.176089"><ele>125.0</ele><time>2026-04-15T18:04:24.907Z</time></trkpt><trkpt lat="45.525061" lon="10.176244"><ele>125.0</ele><time>2026-04-15T18:04:25.91Z</time></trkpt><trkpt lat="45.525002" lon="10.176386"><ele>125.0</ele><time>2026-04-15T18:04:26.91Z</time></trkpt><trkpt lat="45.524942" lon="10.17653"><ele>125.5</ele><time>2026-04-15T18:04:27.914Z</time></trkpt><trkpt lat="45.524881" lon="10.176675"><ele>126.0</ele><time>2026-04-15T18:04:28.911Z</time></trkpt><trkpt lat="45.52482" lon="10.176822"><ele>126.5</ele><time>2026-04-15T18:04:29.913Z</time></trkpt><trkpt lat="45.524764" lon="10.176957"><ele>127.0</ele><time>2026-04-15T18:04:30.931Z</time></trkpt><trkpt lat="45.524694" lon="10.177128"><ele>127.0</ele><time>2026-04-15T18:04:31.93Z</time></trkpt><trkpt lat="45.524632" lon="10.177287"><ele>127.0</ele><time>2026-04-15T18:04:32.919Z</time></trkpt><trkpt lat="45.524572" lon="10.177441"><ele>127.0</ele><time>2026-04-15T18:04:33.919Z</time></trkpt><trkpt lat="45.524513" lon="10.17759"><ele>127.0</ele><time>2026-04-15T18:04:34.919Z</time></trkpt><trkpt lat="45.52446" lon="10.177726"><ele>126.5</ele><time>2026-04-15T18:04:35.921Z</time></trkpt><trkpt lat="45.524395" lon="10.177897"><ele>126.0</ele><time>2026-04-15T18:04:36.921Z</time></trkpt><trkpt lat="45.524334" lon="10.178058"><ele>125.5</ele><time>2026-04-15T18:04:37.923Z</time></trkpt><trkpt lat="45.52428" lon="10.178208"><ele>125.0</ele><time>2026-04-15T18:04:38.924Z</time></trkpt><trkpt lat="45.524215" lon="10.17839"><ele>125.0</ele><time>2026-04-15T18:04:39.925Z</time></trkpt><trkpt lat="45.524164" lon="10.178537"><ele>125.0</ele><time>2026-04-15T18:04:40.926Z</time></trkpt><trkpt lat="45.524103" lon="10.178718"><ele>125.0</ele><time>2026-04-15T18:04:41.927Z</time></trkpt><trkpt lat="45.524052" lon="10.178871"><ele>125.0</ele><time>2026-04-15T18:04:42.929Z</time></trkpt><trkpt lat="45.523986" lon="10.179065"><ele>125.0</ele><time>2026-04-15T18:04:43.929Z</time></trkpt><trkpt lat="45.523925" lon="10.179244"><ele>125.0</ele><time>2026-04-15T18:04:44.929Z</time></trkpt><trkpt lat="45.523866" lon="10.179406"><ele>125.0</ele><time>2026-04-15T18:04:45.931Z</time></trkpt><trkpt lat="45.523798" lon="10.179585"><ele>125.0</ele><time>2026-04-15T18:04:46.934Z</time></trkpt><trkpt lat="45.523719" lon="10.179786"><ele>125.33333333333333</ele><time>2026-04-15T18:04:47.934Z</time></trkpt><trkpt lat="45.523645" lon="10.179973"><ele>125.66666666666666</ele><time>2026-04-15T18:04:48.934Z</time></trkpt><trkpt lat="45.523571" lon="10.180164"><ele>126.0</ele><time>2026-04-15T18:04:49.937Z</time></trkpt><trkpt lat="45.523495" lon="10.18036"><ele>126.0</ele><time>2026-04-15T18:04:50.937Z</time></trkpt><trkpt lat="45.523421" lon="10.180559"><ele>126.0</ele><time>2026-04-15T18:04:51.941Z</time></trkpt><trkpt lat="45.523358" lon="10.180737"><ele>126.0</ele><time>2026-04-15T18:04:52.94Z</time></trkpt><trkpt lat="45.523284" lon="10.180955"><ele>125.66666666666666</ele><time>2026-04-15T18:04:53.993Z</time></trkpt><trkpt lat="45.523218" lon="10.181157"><ele>125.33333333333333</ele><time>2026-04-15T18:04:54.94Z</time></trkpt><trkpt lat="45.52315" lon="10.181363"><ele>125.0</ele><time>2026-04-15T18:04:55.943Z</time></trkpt><trkpt lat="45.523084" lon="10.181574"><ele>125.0</ele><time>2026-04-15T18:04:56.946Z</time></trkpt><trkpt lat="45.523018" lon="10.181797"><ele>125.0</ele><time>2026-04-15T18:04:57.946Z</time></trkpt><trkpt lat="45.522955" lon="10.182032"><ele>125.0</ele><time>2026-04-15T18:04:58.947Z</time></trkpt><trkpt lat="45.522892" lon="10.182278"><ele>124.66666666666666</ele><time>2026-04-15T18:04:59.966Z</time></trkpt><trkpt lat="45.522836" lon="10.182507"><ele>124.33333333333334</ele><time>2026-04-15T18:05:00.948Z</time></trkpt><trkpt lat="45.522765" lon="10.182796"><ele>124.0</ele><time>2026-04-15T18:05:01.948Z</time></trkpt><trkpt lat="45.522706" lon="10.183038"><ele>123.66666666666667</ele><time>2026-04-15T18:05:02.949Z</time></trkpt><trkpt lat="45.522633" lon="10.183339"><ele>123.33333333333334</ele><time>2026-04-15T18:05:03.952Z</time></trkpt><trkpt lat="45.522568" lon="10.183623"><ele>123.0</ele><time>2026-04-15T18:05:04.951Z</time></trkpt><trkpt lat="45.522505" lon="10.183915"><ele>123.0</ele><time>2026-04-15T18:05:05.952Z</time></trkpt><trkpt lat="45.522435" lon="10.184209"><ele>123.0</ele><time>2026-04-15T18:05:06.954Z</time></trkpt><trkpt lat="45.522361" lon="10.1845"><ele>123.0</ele><time>2026-04-15T18:05:07.955Z</time></trkpt><trkpt lat="45.522296" lon="10.184763"><ele>123.0</ele><time>2026-04-15T18:05:08.957Z</time></trkpt><trkpt lat="45.522218" lon="10.185083"><ele>123.0</ele><time>2026-04-15T18:05:09.957Z</time></trkpt><trkpt lat="45.522154" lon="10.185343"><ele>123.0</ele><time>2026-04-15T18:05:10.961Z</time></trkpt><trkpt lat="45.522078" lon="10.185658"><ele>122.66666666666666</ele><time>2026-04-15T18:05:11.961Z</time></trkpt><trkpt lat="45.522016" lon="10.185922"><ele>122.33333333333333</ele><time>2026-04-15T18:05:12.962Z</time></trkpt><trkpt lat="45.521941" lon="10.186258"><ele>122.0</ele><time>2026-04-15T18:05:13.963Z</time></trkpt><trkpt lat="45.521876" lon="10.186593"><ele>121.5</ele><time>2026-04-15T18:05:14.964Z</time></trkpt><trkpt lat="45.521803" lon="10.186941"><ele>121.0</ele><time>2026-04-15T18:05:15.965Z</time></trkpt><trkpt lat="45.52172" lon="10.187294"><ele>122.0</ele><time>2026-04-15T18:05:16.967Z</time></trkpt><trkpt lat="45.521633" lon="10.18765"><ele>123.0</ele><time>2026-04-15T18:05:17.966Z</time></trkpt><trkpt lat="45.521543" lon="10.188006"><ele>123.0</ele><time>2026-04-15T18:05:18.969Z</time></trkpt><trkpt lat="45.521452" lon="10.188362"><ele>123.0</ele><time>2026-04-15T18:05:19.97Z</time></trkpt><trkpt lat="45.521369" lon="10.188682"><ele>123.0</ele><time>2026-04-15T18:05:20.969Z</time></trkpt><trkpt lat="45.521268" lon="10.189074"><ele>123.0</ele><time>2026-04-15T18:05:21.971Z</time></trkpt><trkpt lat="45.521177" lon="10.189431"><ele>123.5</ele><time>2026-04-15T18:05:23.016Z</time></trkpt><trkpt lat="45.521087" lon="10.189789"><ele>124.0</ele><time>2026-04-15T18:05:23.975Z</time></trkpt><trkpt lat="45.521008" lon="10.190113"><ele>125.0</ele><time>2026-04-15T18:05:24.976Z</time></trkpt><trkpt lat="45.520912" lon="10.190509"><ele>126.0</ele><time>2026-04-15T18:05:25.98Z</time></trkpt><trkpt lat="45.520826" lon="10.190869"><ele>126.0</ele><time>2026-04-15T18:05:26.979Z</time></trkpt><trkpt lat="45.52075" lon="10.191195"><ele>126.0</ele><time>2026-04-15T18:05:27.981Z</time></trkpt><trkpt lat="45.520661" lon="10.191594"><ele>126.0</ele><time>2026-04-15T18:05:28.98Z</time></trkpt><trkpt lat="45.520581" lon="10.191957"><ele>126.0</ele><time>2026-04-15T18:05:29.982Z</time></trkpt><trkpt lat="45.520492" lon="10.192323"><ele>125.5</ele><time>2026-04-15T18:05:30.983Z</time></trkpt><trkpt lat="45.52041" lon="10.192686"><ele>125.0</ele><time>2026-04-15T18:05:31.984Z</time></trkpt><trkpt lat="45.520326" lon="10.193047"><ele>125.5</ele><time>2026-04-15T18:05:32.985Z</time></trkpt><trkpt lat="45.520242" lon="10.193408"><ele>126.0</ele><time>2026-04-15T18:05:33.986Z</time></trkpt><trkpt lat="45.520165" lon="10.193732"><ele>125.5</ele><time>2026-04-15T18:05:34.987Z</time></trkpt><trkpt lat="45.52007" lon="10.194128"><ele>125.0</ele><time>2026-04-15T18:05:35.989Z</time></trkpt><trkpt lat="45.519982" lon="10.194486"><ele>124.0</ele><time>2026-04-15T18:05:36.989Z</time></trkpt><trkpt lat="45.519894" lon="10.194846"><ele>123.0</ele><time>2026-04-15T18:05:37.991Z</time></trkpt><trkpt lat="45.519808" lon="10.195206"><ele>123.0</ele><time>2026-04-15T18:05:38.991Z</time></trkpt><trkpt lat="45.519722" lon="10.195566"><ele>123.0</ele><time>2026-04-15T18:05:39.992Z</time></trkpt><trkpt lat="45.519637" lon="10.195927"><ele>122.5</ele><time>2026-04-15T18:05:40.996Z</time></trkpt><trkpt lat="45.519551" lon="10.196286"><ele>122.0</ele><time>2026-04-15T18:05:41.994Z</time></trkpt><trkpt lat="45.519473" lon="10.196609"><ele>122.5</ele><time>2026-04-15T18:05:42.996Z</time></trkpt><trkpt lat="45.519375" lon="10.197005"><ele>123.0</ele><time>2026-04-15T18:05:43.997Z</time></trkpt><trkpt lat="45.519284" lon="10.197362"><ele>123.0</ele><time>2026-04-15T18:05:44.997Z</time></trkpt><trkpt lat="45.519192" lon="10.197718"><ele>123.0</ele><time>2026-04-15T18:05:46.027Z</time></trkpt><trkpt lat="45.5191" lon="10.198075"><ele>122.5</ele><time>2026-04-15T18:05:47Z</time></trkpt><trkpt lat="45.519017" lon="10.198396"><ele>122.0</ele><time>2026-04-15T18:05:48Z</time></trkpt><trkpt lat="45.518918" lon="10.19879"><ele>122.0</ele><time>2026-04-15T18:05:49.005Z</time></trkpt><trkpt lat="45.518829" lon="10.199149"><ele>122.0</ele><time>2026-04-15T18:05:50.003Z</time></trkpt><trkpt lat="45.518742" lon="10.199508"><ele>122.0</ele><time>2026-04-15T18:05:51.004Z</time></trkpt><trkpt lat="45.518655" lon="10.199868"><ele>122.0</ele><time>2026-04-15T18:05:52.004Z</time></trkpt><trkpt lat="45.51857" lon="10.200228"><ele>122.0</ele><time>2026-04-15T18:05:53.005Z</time></trkpt><trkpt lat="45.518484" lon="10.200588"><ele>122.0</ele><time>2026-04-15T18:05:54.006Z</time></trkpt><trkpt lat="45.518407" lon="10.200912"><ele>122.0</ele><time>2026-04-15T18:05:55.009Z</time></trkpt><trkpt lat="45.518312" lon="10.201308"><ele>122.0</ele><time>2026-04-15T18:05:56.01Z</time></trkpt><trkpt lat="45.518225" lon="10.201667"><ele>122.0</ele><time>2026-04-15T18:05:57.011Z</time></trkpt><trkpt lat="45.518138" lon="10.202026"><ele>122.0</ele><time>2026-04-15T18:05:58.073Z</time></trkpt><trkpt lat="45.518049" lon="10.202384"><ele>122.5</ele><time>2026-04-15T18:05:59.017Z</time></trkpt><trkpt lat="45.517957" lon="10.202741"><ele>123.0</ele><time>2026-04-15T18:06:00.015Z</time></trkpt><trkpt lat="45.517857" lon="10.203094"><ele>122.0</ele><time>2026-04-15T18:06:01.017Z</time></trkpt><trkpt lat="45.517749" lon="10.203441"><ele>121.0</ele><time>2026-04-15T18:06:02.016Z</time></trkpt><trkpt lat="45.517633" lon="10.203784"><ele>121.0</ele><time>2026-04-15T18:06:03.018Z</time></trkpt><trkpt lat="45.517511" lon="10.204123"><ele>121.0</ele><time>2026-04-15T18:06:04.026Z</time></trkpt><trkpt lat="45.517384" lon="10.204457"><ele>121.0</ele><time>2026-04-15T18:06:05.021Z</time></trkpt><trkpt lat="45.51725" lon="10.204785"><ele>121.0</ele><time>2026-04-15T18:06:06.023Z</time></trkpt><trkpt lat="45.51711" lon="10.20511"><ele>121.0</ele><time>2026-04-15T18:06:07.023Z</time></trkpt><trkpt lat="45.516962" lon="10.20543"><ele>121.0</ele><time>2026-04-15T18:06:08.026Z</time></trkpt><trkpt lat="45.516809" lon="10.205741"><ele>121.0</ele><time>2026-04-15T18:06:09.027Z</time></trkpt><trkpt lat="45.516649" lon="10.206045"><ele>121.0</ele><time>2026-04-15T18:06:10.027Z</time></trkpt><trkpt lat="45.516483" lon="10.206343"><ele>121.5</ele><time>2026-04-15T18:06:11.028Z</time></trkpt><trkpt lat="45.516314" lon="10.206638"><ele>122.0</ele><time>2026-04-15T18:06:12.029Z</time></trkpt><trkpt lat="45.516144" lon="10.206931"><ele>122.0</ele><time>2026-04-15T18:06:13.031Z</time></trkpt><trkpt lat="45.515971" lon="10.207219"><ele>122.0</ele><time>2026-04-15T18:06:14.032Z</time></trkpt><trkpt lat="45.515801" lon="10.207504"><ele>121.0</ele><time>2026-04-15T18:06:15.034Z</time></trkpt><trkpt lat="45.515632" lon="10.207786"><ele>120.0</ele><time>2026-04-15T18:06:16.035Z</time></trkpt><trkpt lat="45.515466" lon="10.208065"><ele>119.0</ele><time>2026-04-15T18:06:17.035Z</time></trkpt><trkpt lat="45.515302" lon="10.208343"><ele>118.0</ele><time>2026-04-15T18:06:18.037Z</time></trkpt><trkpt lat="45.51514" lon="10.208617"><ele>118.0</ele><time>2026-04-15T18:06:19.04Z</time></trkpt><trkpt lat="45.514979" lon="10.208886"><ele>118.0</ele><time>2026-04-15T18:06:20.042Z</time></trkpt><trkpt lat="45.514822" lon="10.209157"><ele>118.5</ele><time>2026-04-15T18:06:21.077Z</time></trkpt><trkpt lat="45.514665" lon="10.20942"><ele>119.0</ele><time>2026-04-15T18:06:22.048Z</time></trkpt><trkpt lat="45.51451" lon="10.20968"><ele>119.33333333333333</ele><time>2026-04-15T18:06:23.049Z</time></trkpt><trkpt lat="45.514357" lon="10.209936"><ele>119.66666666666666</ele><time>2026-04-15T18:06:24.045Z</time></trkpt><trkpt lat="45.514221" lon="10.210163"><ele>120.0</ele><time>2026-04-15T18:06:25.047Z</time></trkpt><trkpt lat="45.514058" lon="10.210438"><ele>120.33333333333334</ele><time>2026-04-15T18:06:26.05Z</time></trkpt><trkpt lat="45.513915" lon="10.210688"><ele>120.66666666666667</ele><time>2026-04-15T18:06:27.052Z</time></trkpt><trkpt lat="45.513777" lon="10.210938"><ele>121.0</ele><time>2026-04-15T18:06:28.051Z</time></trkpt><trkpt lat="45.513659" lon="10.211161"><ele>121.0</ele><time>2026-04-15T18:06:29.051Z</time></trkpt><trkpt lat="45.513524" lon="10.211429"><ele>121.0</ele><time>2026-04-15T18:06:30.052Z</time></trkpt><trkpt lat="45.513409" lon="10.211667"><ele>121.0</ele><time>2026-04-15T18:06:31.052Z</time></trkpt><trkpt lat="45.513306" lon="10.211898"><ele>121.33333333333334</ele><time>2026-04-15T18:06:32.054Z</time></trkpt><trkpt lat="45.513215" lon="10.21212"><ele>121.66666666666666</ele><time>2026-04-15T18:06:33.057Z</time></trkpt><trkpt lat="45.513134" lon="10.212336"><ele>122.0</ele><time>2026-04-15T18:06:34.057Z</time></trkpt><trkpt lat="45.513058" lon="10.212549"><ele>122.0</ele><time>2026-04-15T18:06:35.058Z</time></trkpt><trkpt lat="45.512987" lon="10.212756"><ele>122.0</ele><time>2026-04-15T18:06:36.057Z</time></trkpt><trkpt lat="45.512919" lon="10.212956"><ele>122.0</ele><time>2026-04-15T18:06:37.059Z</time></trkpt><trkpt lat="45.512853" lon="10.213151"><ele>121.25</ele><time>2026-04-15T18:06:38.061Z</time></trkpt><trkpt lat="45.512788" lon="10.21334"><ele>120.5</ele><time>2026-04-15T18:06:39.063Z</time></trkpt><trkpt lat="45.512732" lon="10.213506"><ele>119.75</ele><time>2026-04-15T18:06:40.063Z</time></trkpt><trkpt lat="45.512663" lon="10.213702"><ele>119.0</ele><time>2026-04-15T18:06:41.066Z</time></trkpt><trkpt lat="45.512603" lon="10.213877"><ele>119.0</ele><time>2026-04-15T18:06:42.068Z</time></trkpt><trkpt lat="45.512553" lon="10.214032"><ele>119.0</ele><time>2026-04-15T18:06:43.069Z</time></trkpt><trkpt lat="45.512501" lon="10.214212"><ele>119.0</ele><time>2026-04-15T18:06:44.069Z</time></trkpt><trkpt lat="45.512464" lon="10.214356"><ele>119.0</ele><time>2026-04-15T18:06:45.07Z</time></trkpt><trkpt lat="45.512431" lon="10.21448"><ele>118.99999999999999</ele><time>2026-04-15T18:06:46.071Z</time></trkpt><trkpt lat="45.512407" lon="10.21457"><ele>119.0</ele><time>2026-04-15T18:06:47.076Z</time></trkpt><trkpt lat="45.512384" lon="10.214656"><ele>119.0</ele><time>2026-04-15T18:06:48.078Z</time></trkpt><trkpt lat="45.512351" lon="10.214784"><ele>119.0</ele><time>2026-04-15T18:06:50.079Z</time></trkpt><trkpt lat="45.512315" lon="10.214923"><ele>118.99999999999999</ele><time>2026-04-15T18:06:52.078Z</time></trkpt><trkpt lat="45.512267" lon="10.215064"><ele>119.0</ele><time>2026-04-15T18:06:54.082Z</time></trkpt><trkpt lat="45.512191" lon="10.215213"><ele>119.0</ele><time>2026-04-15T18:06:56.083Z</time></trkpt><trkpt lat="45.512139" lon="10.215291"><ele>119.0</ele><time>2026-04-15T18:06:57.086Z</time></trkpt><trkpt lat="45.512071" lon="10.215368"><ele>119.0</ele><time>2026-04-15T18:06:58.086Z</time></trkpt><trkpt lat="45.51199" lon="10.215439"><ele>119.0</ele><time>2026-04-15T18:06:59.087Z</time></trkpt><trkpt lat="45.511895" lon="10.215498"><ele>119.0</ele><time>2026-04-15T18:07:00.087Z</time></trkpt><trkpt lat="45.511785" lon="10.215538"><ele>119.5</ele><time>2026-04-15T18:07:01.118Z</time></trkpt><trkpt lat="45.511668" lon="10.215564"><ele>120.0</ele><time>2026-04-15T18:07:02.09Z</time></trkpt><trkpt lat="45.511546" lon="10.215576"><ele>120.5</ele><time>2026-04-15T18:07:03.094Z</time></trkpt><trkpt lat="45.51142" lon="10.215581"><ele>121.0</ele><time>2026-04-15T18:07:04.096Z</time></trkpt><trkpt lat="45.511293" lon="10.215584"><ele>120.5</ele><time>2026-04-15T18:07:05.098Z</time></trkpt><trkpt lat="45.511163" lon="10.215586"><ele>120.0</ele><time>2026-04-15T18:07:06.097Z</time></trkpt><trkpt lat="45.511048" lon="10.21559"><ele>119.5</ele><time>2026-04-15T18:07:07.104Z</time></trkpt><trkpt lat="45.510903" lon="10.215604"><ele>119.0</ele><time>2026-04-15T18:07:08.101Z</time></trkpt><trkpt lat="45.510779" lon="10.215612"><ele>119.0</ele><time>2026-04-15T18:07:09.102Z</time></trkpt><trkpt lat="45.510654" lon="10.215613"><ele>119.0</ele><time>2026-04-15T18:07:10.104Z</time></trkpt><trkpt lat="45.510532" lon="10.215614"><ele>119.0</ele><time>2026-04-15T18:07:11.103Z</time></trkpt><trkpt lat="45.510412" lon="10.215607"><ele>119.0</ele><time>2026-04-15T18:07:12.104Z</time></trkpt><trkpt lat="45.510294" lon="10.215594"><ele>119.0</ele><time>2026-04-15T18:07:13.136Z</time></trkpt><trkpt lat="45.510177" lon="10.215575"><ele>119.0</ele><time>2026-04-15T18:07:14.108Z</time></trkpt><trkpt lat="45.510058" lon="10.215549"><ele>119.0</ele><time>2026-04-15T18:07:15.107Z</time></trkpt><trkpt lat="45.509947" lon="10.215522"><ele>119.0</ele><time>2026-04-15T18:07:16.109Z</time></trkpt><trkpt lat="45.509806" lon="10.215488"><ele>119.0</ele><time>2026-04-15T18:07:17.111Z</time></trkpt><trkpt lat="45.509676" lon="10.215456"><ele>119.0</ele><time>2026-04-15T18:07:18.11Z</time></trkpt><trkpt lat="45.509558" lon="10.215429"><ele>119.0</ele><time>2026-04-15T18:07:19.116Z</time></trkpt><trkpt lat="45.509413" lon="10.215392"><ele>119.0</ele><time>2026-04-15T18:07:20.113Z</time></trkpt><trkpt lat="45.509278" lon="10.215357"><ele>119.0</ele><time>2026-04-15T18:07:21.114Z</time></trkpt><trkpt lat="45.509155" lon="10.215325"><ele>119.0</ele><time>2026-04-15T18:07:22.114Z</time></trkpt><trkpt lat="45.509" lon="10.215285"><ele>119.0</ele><time>2026-04-15T18:07:23.119Z</time></trkpt><trkpt lat="45.508856" lon="10.215245"><ele>119.0</ele><time>2026-04-15T18:07:24.118Z</time></trkpt><trkpt lat="45.508711" lon="10.215203"><ele>118.66666666666666</ele><time>2026-04-15T18:07:25.119Z</time></trkpt><trkpt lat="45.508564" lon="10.21516"><ele>118.33333333333334</ele><time>2026-04-15T18:07:27.121Z</time></trkpt><trkpt lat="45.508416" lon="10.215115"><ele>118.0</ele><time>2026-04-15T18:07:28.123Z</time></trkpt><trkpt lat="45.508115" lon="10.215019"><ele>118.0</ele><time>2026-04-15T18:07:29.123Z</time></trkpt><trkpt lat="45.507963" lon="10.21497"><ele>118.0</ele><time>2026-04-15T18:07:30.13Z</time></trkpt><trkpt lat="45.507657" lon="10.214866"><ele>117.0</ele><time>2026-04-15T18:07:32.127Z</time></trkpt><trkpt lat="45.507502" lon="10.214815"><ele>116.0</ele><time>2026-04-15T18:07:33.128Z</time></trkpt><trkpt lat="45.507346" lon="10.214768"><ele>115.0</ele><time>2026-04-15T18:07:34.13Z</time></trkpt><trkpt lat="45.507187" lon="10.214729"><ele>113.66666666666667</ele><time>2026-04-15T18:07:35.131Z</time></trkpt><trkpt lat="45.507024" lon="10.214696"><ele>112.33333333333334</ele><time>2026-04-15T18:07:36.149Z</time></trkpt><trkpt lat="45.506861" lon="10.214672"><ele>111.0</ele><time>2026-04-15T18:07:38.134Z</time></trkpt><trkpt lat="45.506697" lon="10.214658"><ele>111.0</ele><time>2026-04-15T18:07:39.134Z</time></trkpt><trkpt lat="45.506533" lon="10.214651"><ele>111.0</ele><time>2026-04-15T18:07:40.137Z</time></trkpt><trkpt lat="45.50637" lon="10.214652"><ele>111.0</ele><time>2026-04-15T18:07:41.137Z</time></trkpt><trkpt lat="45.506205" lon="10.214659"><ele>113.0</ele><time>2026-04-15T18:07:42.138Z</time></trkpt><trkpt lat="45.505866" lon="10.214681"><ele>115.0</ele><time>2026-04-15T18:07:43.14Z</time></trkpt><trkpt lat="45.505694" lon="10.214689"><ele>115.0</ele><time>2026-04-15T18:07:44.139Z</time></trkpt><trkpt lat="45.505522" lon="10.214693"><ele>115.0</ele><time>2026-04-15T18:07:46.145Z</time></trkpt><trkpt lat="45.505351" lon="10.214692"><ele>115.0</ele><time>2026-04-15T18:07:47.144Z</time></trkpt><trkpt lat="45.505182" lon="10.214685"><ele>114.5</ele><time>2026-04-15T18:07:48.146Z</time></trkpt><trkpt lat="45.504851" lon="10.214657"><ele>114.0</ele><time>2026-04-15T18:07:49.147Z</time></trkpt><trkpt lat="45.504689" lon="10.214638"><ele>113.66666666666666</ele><time>2026-04-15T18:07:51.148Z</time></trkpt><trkpt lat="45.50453" lon="10.214616"><ele>113.33333333333333</ele><time>2026-04-15T18:07:52.15Z</time></trkpt><trkpt lat="45.504374" lon="10.214593"><ele>113.0</ele><time>2026-04-15T18:07:53.168Z</time></trkpt><trkpt lat="45.50422" lon="10.214568"><ele>113.0</ele><time>2026-04-15T18:07:54.151Z</time></trkpt><trkpt lat="45.504084" lon="10.214545"><ele>113.0</ele><time>2026-04-15T18:07:55.153Z</time></trkpt><trkpt lat="45.503772" lon="10.214492"><ele>113.0</ele><time>2026-04-15T18:07:56.155Z</time></trkpt><trkpt lat="45.503641" lon="10.21447"><ele>113.0</ele><time>2026-04-15T18:07:57.155Z</time></trkpt><trkpt lat="45.503483" lon="10.214443"><ele>113.0</ele><time>2026-04-15T18:07:58.156Z</time></trkpt><trkpt lat="45.503341" lon="10.214418"><ele>113.0</ele><time>2026-04-15T18:07:59.158Z</time></trkpt><trkpt lat="45.503201" lon="10.214393"><ele>113.0</ele><time>2026-04-15T18:08:00.158Z</time></trkpt><trkpt lat="45.50306" lon="10.214367"><ele>113.0</ele><time>2026-04-15T18:08:01.161Z</time></trkpt><trkpt lat="45.502921" lon="10.214339"><ele>113.0</ele><time>2026-04-15T18:08:02.161Z</time></trkpt><trkpt lat="45.502783" lon="10.214312"><ele>113.0</ele><time>2026-04-15T18:08:03.161Z</time></trkpt><trkpt lat="45.502648" lon="10.214287"><ele>113.33333333333333</ele><time>2026-04-15T18:08:04.162Z</time></trkpt><trkpt lat="45.502513" lon="10.214265"><ele>113.66666666666666</ele><time>2026-04-15T18:08:06.167Z</time></trkpt><trkpt lat="45.50238" lon="10.21425"><ele>114.0</ele><time>2026-04-15T18:08:07.166Z</time></trkpt><trkpt lat="45.502124" lon="10.214243"><ele>114.0</ele><time>2026-04-15T18:08:08.167Z</time></trkpt><trkpt lat="45.502004" lon="10.214248"><ele>114.0</ele><time>2026-04-15T18:08:09.173Z</time></trkpt><trkpt lat="45.50189" lon="10.214257"><ele>114.0</ele><time>2026-04-15T18:08:11.196Z</time></trkpt><trkpt lat="45.501785" lon="10.214265"><ele>114.0</ele><time>2026-04-15T18:08:12.173Z</time></trkpt><trkpt lat="45.501693" lon="10.214268"><ele>114.0</ele><time>2026-04-15T18:08:13.177Z</time></trkpt><trkpt lat="45.501609" lon="10.214262"><ele>114.0</ele><time>2026-04-15T18:08:14.179Z</time></trkpt><trkpt lat="45.501445" lon="10.214233"><ele>114.0</ele><time>2026-04-15T18:08:15.181Z</time></trkpt><trkpt lat="45.501361" lon="10.21421"><ele>114.0</ele><time>2026-04-15T18:08:16.182Z</time></trkpt><trkpt lat="45.501275" lon="10.214179"><ele>114.0</ele><time>2026-04-15T18:08:18.183Z</time></trkpt><trkpt lat="45.501188" lon="10.214143"><ele>114.0</ele><time>2026-04-15T18:08:19.184Z</time></trkpt><trkpt lat="45.501099" lon="10.214105"><ele>113.5</ele><time>2026-04-15T18:08:20.186Z</time></trkpt><trkpt lat="45.50101" lon="10.214068"><ele>113.0</ele><time>2026-04-15T18:08:21.187Z</time></trkpt><trkpt lat="45.500921" lon="10.214033"><ele>112.5</ele><time>2026-04-15T18:08:22.188Z</time></trkpt><trkpt lat="45.500831" lon="10.214003"><ele>112.0</ele><time>2026-04-15T18:08:23.191Z</time></trkpt><trkpt lat="45.500658" lon="10.213945"><ele>111.8</ele><time>2026-04-15T18:08:24.19Z</time></trkpt><trkpt lat="45.500576" lon="10.213916"><ele>111.6</ele><time>2026-04-15T18:08:25.19Z</time></trkpt><trkpt lat="45.500491" lon="10.213887"><ele>111.39999999999999</ele><time>2026-04-15T18:08:26.193Z</time></trkpt><trkpt lat="45.500403" lon="10.213857"><ele>111.19999999999999</ele><time>2026-04-15T18:08:27.193Z</time></trkpt><trkpt lat="45.500311" lon="10.213825"><ele>111.0</ele><time>2026-04-15T18:08:28.194Z</time></trkpt><trkpt lat="45.500217" lon="10.213787"><ele>111.0</ele><time>2026-04-15T18:08:29.196Z</time></trkpt><trkpt lat="45.500124" lon="10.213736"><ele>111.0</ele><time>2026-04-15T18:08:30.196Z</time></trkpt><trkpt lat="45.499957" lon="10.2136"><ele>111.0</ele><time>2026-04-15T18:08:32.199Z</time></trkpt><trkpt lat="45.499885" lon="10.213531"><ele>111.0</ele><time>2026-04-15T18:08:33.201Z</time></trkpt><trkpt lat="45.499821" lon="10.213469"><ele>111.0</ele><time>2026-04-15T18:08:34.219Z</time></trkpt><trkpt lat="45.499759" lon="10.213408"><ele>111.0</ele><time>2026-04-15T18:08:35.201Z</time></trkpt><trkpt lat="45.499624" lon="10.213277"><ele>111.0</ele><time>2026-04-15T18:08:37.205Z</time></trkpt><trkpt lat="45.499557" lon="10.213211"><ele>111.0</ele><time>2026-04-15T18:08:38.206Z</time></trkpt><trkpt lat="45.499498" lon="10.213152"><ele>111.0</ele><time>2026-04-15T18:08:39.207Z</time></trkpt><trkpt lat="45.499427" lon="10.213069"><ele>110.8</ele><time>2026-04-15T18:08:42.209Z</time></trkpt><trkpt lat="45.49936" lon="10.212922"><ele>110.6</ele><time>2026-04-15T18:08:44.212Z</time></trkpt><trkpt lat="45.499287" lon="10.212803"><ele>110.4</ele><time>2026-04-15T18:08:47.215Z</time></trkpt><trkpt lat="45.499161" lon="10.212764"><ele>110.2</ele><time>2026-04-15T18:08:49.219Z</time></trkpt><trkpt lat="45.49909" lon="10.212751"><ele>110.0</ele><time>2026-04-15T18:08:50.219Z</time></trkpt><trkpt lat="45.499015" lon="10.212719"><ele>110.0</ele><time>2026-04-15T18:08:51.219Z</time></trkpt><trkpt lat="45.498946" lon="10.21268"><ele>110.0</ele><time>2026-04-15T18:08:52.221Z</time></trkpt><trkpt lat="45.498858" lon="10.212632"><ele>110.0</ele><time>2026-04-15T18:08:53.221Z</time></trkpt><trkpt lat="45.498773" lon="10.21259"><ele>110.0</ele><time>2026-04-15T18:08:54.225Z</time></trkpt><trkpt lat="45.498681" lon="10.212557"><ele>110.0</ele><time>2026-04-15T18:08:55.223Z</time></trkpt><trkpt lat="45.498485" lon="10.212492"><ele>110.25</ele><time>2026-04-15T18:08:56.225Z</time></trkpt><trkpt lat="45.498382" lon="10.212457"><ele>110.5</ele><time>2026-04-15T18:08:57.288Z</time></trkpt><trkpt lat="45.498279" lon="10.212418"><ele>110.75</ele><time>2026-04-15T18:08:58.228Z</time></trkpt><trkpt lat="45.498065" lon="10.212329"><ele>111.0</ele><time>2026-04-15T18:09:00.229Z</time></trkpt><trkpt lat="45.497955" lon="10.212286"><ele>110.66666666666666</ele><time>2026-04-15T18:09:01.231Z</time></trkpt><trkpt lat="45.497738" lon="10.21223"><ele>110.33333333333333</ele><time>2026-04-15T18:09:03.285Z</time></trkpt><trkpt lat="45.49761" lon="10.212203"><ele>110.0</ele><time>2026-04-15T18:09:04.235Z</time></trkpt><trkpt lat="45.497495" lon="10.212177"><ele>110.0</ele><time>2026-04-15T18:09:06.236Z</time></trkpt><trkpt lat="45.497381" lon="10.212144"><ele>110.0</ele><time>2026-04-15T18:09:07.238Z</time></trkpt><trkpt lat="45.497269" lon="10.212101"><ele>110.0</ele><time>2026-04-15T18:09:08.238Z</time></trkpt><trkpt lat="45.497161" lon="10.212049"><ele>110.0</ele><time>2026-04-15T18:09:09.286Z</time></trkpt><trkpt lat="45.497054" lon="10.21199"><ele>110.0</ele><time>2026-04-15T18:09:10.241Z</time></trkpt><trkpt lat="45.496946" lon="10.211929"><ele>110.0</ele><time>2026-04-15T18:09:11.241Z</time></trkpt><trkpt lat="45.496839" lon="10.211867"><ele>110.0</ele><time>2026-04-15T18:09:12.243Z</time></trkpt><trkpt lat="45.496731" lon="10.211805"><ele>110.0</ele><time>2026-04-15T18:09:13.243Z</time></trkpt><trkpt lat="45.496624" lon="10.211746"><ele>110.0</ele><time>2026-04-15T18:09:14.244Z</time></trkpt><trkpt lat="45.496516" lon="10.211691"><ele>110.0</ele><time>2026-04-15T18:09:15.245Z</time></trkpt><trkpt lat="45.496408" lon="10.211641"><ele>110.0</ele><time>2026-04-15T18:09:16.25Z</time></trkpt><trkpt lat="45.496304" lon="10.211595"><ele>110.0</ele><time>2026-04-15T18:09:17.25Z</time></trkpt><trkpt lat="45.496219" lon="10.211561"><ele>110.0</ele><time>2026-04-15T18:09:18.25Z</time></trkpt><trkpt lat="45.496124" lon="10.211525"><ele>110.0</ele><time>2026-04-15T18:09:19.25Z</time></trkpt><trkpt lat="45.496041" lon="10.211495"><ele>110.0</ele><time>2026-04-15T18:09:20.262Z</time></trkpt><trkpt lat="45.495953" lon="10.211467"><ele>110.0</ele><time>2026-04-15T18:09:21.252Z</time></trkpt><trkpt lat="45.495862" lon="10.211438"><ele>110.0</ele><time>2026-04-15T18:09:22.253Z</time></trkpt><trkpt lat="45.495771" lon="10.211408"><ele>110.0</ele><time>2026-04-15T18:09:23.255Z</time></trkpt><trkpt lat="45.495683" lon="10.211381"><ele>109.66666666666666</ele><time>2026-04-15T18:09:24.257Z</time></trkpt><trkpt lat="45.495604" lon="10.211356"><ele>109.33333333333333</ele><time>2026-04-15T18:09:25.265Z</time></trkpt><trkpt lat="45.495535" lon="10.211335"><ele>109.0</ele><time>2026-04-15T18:09:26.26Z</time></trkpt><trkpt lat="45.495446" lon="10.211307"><ele>108.66666666666666</ele><time>2026-04-15T18:09:27.261Z</time></trkpt><trkpt lat="45.495359" lon="10.211278"><ele>108.33333333333333</ele><time>2026-04-15T18:09:28.264Z</time></trkpt><trkpt lat="45.495267" lon="10.211243"><ele>108.0</ele><time>2026-04-15T18:09:29.263Z</time></trkpt><trkpt lat="45.495169" lon="10.211205"><ele>109.0</ele><time>2026-04-15T18:09:30.265Z</time></trkpt><trkpt lat="45.495068" lon="10.211164"><ele>110.00000000000001</ele><time>2026-04-15T18:09:31.265Z</time></trkpt><trkpt lat="45.494963" lon="10.211121"><ele>111.00000000000001</ele><time>2026-04-15T18:09:32.267Z</time></trkpt><trkpt lat="45.494856" lon="10.211078"><ele>112.0</ele><time>2026-04-15T18:09:33.268Z</time></trkpt><trkpt lat="45.494747" lon="10.211033"><ele>113.0</ele><time>2026-04-15T18:09:34.268Z</time></trkpt><trkpt lat="45.494636" lon="10.210988"><ele>112.60000000000001</ele><time>2026-04-15T18:09:35.272Z</time></trkpt><trkpt lat="45.494527" lon="10.210943"><ele>112.20000000000002</ele><time>2026-04-15T18:09:36.272Z</time></trkpt><trkpt lat="45.494419" lon="10.210898"><ele>111.8</ele><time>2026-04-15T18:09:37.272Z</time></trkpt><trkpt lat="45.494314" lon="10.210856"><ele>111.4</ele><time>2026-04-15T18:09:38.28Z</time></trkpt><trkpt lat="45.494208" lon="10.210814"><ele>111.0</ele><time>2026-04-15T18:09:39.275Z</time></trkpt><trkpt lat="45.494101" lon="10.210771"><ele>111.0</ele><time>2026-04-15T18:09:40.277Z</time></trkpt><trkpt lat="45.493995" lon="10.210726"><ele>111.0</ele><time>2026-04-15T18:09:41.279Z</time></trkpt><trkpt lat="45.493887" lon="10.210681"><ele>111.0</ele><time>2026-04-15T18:09:42.281Z</time></trkpt><trkpt lat="45.49378" lon="10.210636"><ele>111.0</ele><time>2026-04-15T18:09:43.285Z</time></trkpt><trkpt lat="45.493686" lon="10.210597"><ele>111.0</ele><time>2026-04-15T18:09:44.283Z</time></trkpt><trkpt lat="45.493574" lon="10.210549"><ele>110.4</ele><time>2026-04-15T18:09:45.285Z</time></trkpt><trkpt lat="45.493473" lon="10.210509"><ele>109.8</ele><time>2026-04-15T18:09:46.284Z</time></trkpt><trkpt lat="45.493371" lon="10.210469"><ele>109.20000000000002</ele><time>2026-04-15T18:09:47.286Z</time></trkpt><trkpt lat="45.493268" lon="10.210428"><ele>108.60000000000001</ele><time>2026-04-15T18:09:48.287Z</time></trkpt><trkpt lat="45.493164" lon="10.210386"><ele>108.0</ele><time>2026-04-15T18:09:49.29Z</time></trkpt><trkpt lat="45.493059" lon="10.210344"><ele>108.0</ele><time>2026-04-15T18:09:50.29Z</time></trkpt><trkpt lat="45.492954" lon="10.210301"><ele>108.00000000000001</ele><time>2026-04-15T18:09:51.291Z</time></trkpt><trkpt lat="45.492846" lon="10.210257"><ele>108.00000000000001</ele><time>2026-04-15T18:09:52.293Z</time></trkpt><trkpt lat="45.492738" lon="10.210212"><ele>108.0</ele><time>2026-04-15T18:09:53.294Z</time></trkpt><trkpt lat="45.492627" lon="10.210167"><ele>108.0</ele><time>2026-04-15T18:09:54.295Z</time></trkpt><trkpt lat="45.492516" lon="10.210121"><ele>108.5</ele><time>2026-04-15T18:09:55.368Z</time></trkpt><trkpt lat="45.492417" lon="10.21008"><ele>109.0</ele><time>2026-04-15T18:09:56.296Z</time></trkpt><trkpt lat="45.492298" lon="10.21003"><ele>109.5</ele><time>2026-04-15T18:09:57.302Z</time></trkpt><trkpt lat="45.49219" lon="10.209985"><ele>110.0</ele><time>2026-04-15T18:09:58.302Z</time></trkpt><trkpt lat="45.492082" lon="10.209942"><ele>110.2</ele><time>2026-04-15T18:09:59.307Z</time></trkpt><trkpt lat="45.491976" lon="10.209902"><ele>110.4</ele><time>2026-04-15T18:10:00.304Z</time></trkpt><trkpt lat="45.491869" lon="10.209864"><ele>110.6</ele><time>2026-04-15T18:10:01.349Z</time></trkpt><trkpt lat="45.491764" lon="10.209833"><ele>110.8</ele><time>2026-04-15T18:10:02.306Z</time></trkpt><trkpt lat="45.491658" lon="10.209805"><ele>111.0</ele><time>2026-04-15T18:10:03.307Z</time></trkpt><trkpt lat="45.491553" lon="10.209777"><ele>110.4</ele><time>2026-04-15T18:10:04.31Z</time></trkpt><trkpt lat="45.49145" lon="10.209747"><ele>109.8</ele><time>2026-04-15T18:10:05.31Z</time></trkpt><trkpt lat="45.491352" lon="10.209719"><ele>109.20000000000002</ele><time>2026-04-15T18:10:06.311Z</time></trkpt><trkpt lat="45.491262" lon="10.20969"><ele>108.60000000000001</ele><time>2026-04-15T18:10:07.316Z</time></trkpt><trkpt lat="45.491182" lon="10.209659"><ele>108.0</ele><time>2026-04-15T18:10:08.316Z</time></trkpt><trkpt lat="45.491112" lon="10.209627"><ele>108.2</ele><time>2026-04-15T18:10:09.316Z</time></trkpt><trkpt lat="45.49101" lon="10.209543"><ele>108.4</ele><time>2026-04-15T18:10:11.317Z</time></trkpt><trkpt lat="45.490917" lon="10.209543"><ele>108.60000000000001</ele><time>2026-04-15T18:10:13.319Z</time></trkpt><trkpt lat="45.490883" lon="10.209692"><ele>108.80000000000001</ele><time>2026-04-15T18:10:15.324Z</time></trkpt><trkpt lat="45.490875" lon="10.20979"><ele>109.0</ele><time>2026-04-15T18:10:16.324Z</time></trkpt><trkpt lat="45.490859" lon="10.209897"><ele>109.00000000000001</ele><time>2026-04-15T18:10:17.324Z</time></trkpt><trkpt lat="45.490834" lon="10.210005"><ele>109.0</ele><time>2026-04-15T18:10:18.326Z</time></trkpt><trkpt lat="45.490808" lon="10.210113"><ele>109.0</ele><time>2026-04-15T18:10:19.326Z</time></trkpt><trkpt lat="45.490783" lon="10.210218"><ele>109.0</ele><time>2026-04-15T18:10:20.328Z</time></trkpt><trkpt lat="45.490759" lon="10.210314"><ele>109.00000000000001</ele><time>2026-04-15T18:10:21.329Z</time></trkpt><trkpt lat="45.490719" lon="10.210465"><ele>109.0</ele><time>2026-04-15T18:10:23.332Z</time></trkpt><trkpt lat="45.490693" lon="10.210558"><ele>109.0</ele><time>2026-04-15T18:10:25.333Z</time></trkpt><trkpt lat="45.490655" lon="10.210698"><ele>109.0</ele><time>2026-04-15T18:10:34.343Z</time></trkpt><trkpt lat="45.490613" lon="10.210869"><ele>109.0</ele><time>2026-04-15T18:10:36.346Z</time></trkpt><trkpt lat="45.490587" lon="10.210967"><ele>109.0</ele><time>2026-04-15T18:10:37.346Z</time></trkpt><trkpt lat="45.490562" lon="10.211062"><ele>109.0</ele><time>2026-04-15T18:10:38.349Z</time></trkpt><trkpt lat="45.490527" lon="10.211201"><ele>109.00000000000001</ele><time>2026-04-15T18:10:40.35Z</time></trkpt><trkpt lat="45.490469" lon="10.21126"><ele>109.0</ele><time>2026-04-15T18:10:43.354Z</time></trkpt><trkpt lat="45.490375" lon="10.211219"><ele>109.0</ele><time>2026-04-15T18:10:45.359Z</time></trkpt><trkpt lat="45.490248" lon="10.211171"><ele>109.0</ele><time>2026-04-15T18:10:46.36Z</time></trkpt><trkpt lat="45.490177" lon="10.211143"><ele>109.00000000000001</ele><time>2026-04-15T18:10:47.413Z</time></trkpt><trkpt lat="45.490111" lon="10.211117"><ele>109.0</ele><time>2026-04-15T18:10:48.365Z</time></trkpt><trkpt lat="45.49003" lon="10.211087"><ele>108.66666666666667</ele><time>2026-04-15T18:10:49.364Z</time></trkpt><trkpt lat="45.489956" lon="10.211061"><ele>108.33333333333334</ele><time>2026-04-15T18:10:50.365Z</time></trkpt><trkpt lat="45.489881" lon="10.211033"><ele>108.0</ele><time>2026-04-15T18:10:51.37Z</time></trkpt><trkpt lat="45.489806" lon="10.211005"><ele>107.66666666666666</ele><time>2026-04-15T18:10:52.371Z</time></trkpt><trkpt lat="45.489731" lon="10.210978"><ele>107.33333333333333</ele><time>2026-04-15T18:10:53.396Z</time></trkpt><trkpt lat="45.489661" lon="10.210953"><ele>107.0</ele><time>2026-04-15T18:10:54.377Z</time></trkpt><trkpt lat="45.489547" lon="10.210914"><ele>106.8</ele><time>2026-04-15T18:10:56.381Z</time></trkpt><trkpt lat="45.489436" lon="10.210878"><ele>106.6</ele><time>2026-04-15T18:10:58.379Z</time></trkpt><trkpt lat="45.489315" lon="10.210835"><ele>106.39999999999999</ele><time>2026-04-15T18:11:00.382Z</time></trkpt><trkpt lat="45.489182" lon="10.210787"><ele>106.19999999999999</ele><time>2026-04-15T18:11:02.382Z</time></trkpt><trkpt lat="45.489112" lon="10.210763"><ele>106.0</ele><time>2026-04-15T18:11:03.384Z</time></trkpt><trkpt lat="45.489043" lon="10.210741"><ele>106.00000000000001</ele><time>2026-04-15T18:11:04.385Z</time></trkpt><trkpt lat="45.488975" lon="10.210719"><ele>106.0</ele><time>2026-04-15T18:11:05.386Z</time></trkpt><trkpt lat="45.488907" lon="10.210698"><ele>106.0</ele><time>2026-04-15T18:11:06.387Z</time></trkpt><trkpt lat="45.488841" lon="10.210676"><ele>106.0</ele><time>2026-04-15T18:11:07.39Z</time></trkpt><trkpt lat="45.488778" lon="10.210654"><ele>106.00000000000001</ele><time>2026-04-15T18:11:08.391Z</time></trkpt><trkpt lat="45.488667" lon="10.210604"><ele>106.0</ele><time>2026-04-15T18:11:10.438Z</time></trkpt><trkpt lat="45.488565" lon="10.210549"><ele>106.0</ele><time>2026-04-15T18:11:12.396Z</time></trkpt><trkpt lat="45.488502" lon="10.210506"><ele>106.0</ele><time>2026-04-15T18:11:14.399Z</time></trkpt><trkpt lat="45.488491" lon="10.210409"><ele>106.0</ele><time>2026-04-15T18:11:17.401Z</time></trkpt></trkseg></trk></gpx>